createdAt,value
2018-06-17T00:00:03.999Z,16.12
2018-06-17T00:00:08.213Z,16.12
2018-06-17T00:00:12.540Z,16.13
2018-06-17T00:00:16.745Z,16.13
2018-06-17T00:00:20.839Z,16.12
2018-06-17T00:00:25.048Z,16.12
2018-06-17T00:00:29.254Z,16.12
2018-06-17T00:00:33.567Z,16.12
2018-06-17T00:00:37.772Z,16.13
2018-06-17T00:00:41.870Z,16.12
2018-06-17T00:00:46.073Z,16.12
2018-06-17T00:00:50.284Z,16.12
2018-06-17T00:00:54.487Z,16.12
2018-06-17T00:00:58.584Z,16.12
2018-06-17T00:01:02.855Z,16.12
2018-06-17T00:01:06.746Z,16.12
2018-06-17T00:01:10.952Z,16.12
2018-06-17T00:01:15.055Z,16.13
2018-06-17T00:01:19.374Z,16.12
2018-06-17T00:01:23.584Z,16.12
2018-06-17T00:01:27.893Z,16.12
2018-06-17T00:01:32.215Z,16.12
2018-06-17T00:01:36.313Z,16.12
2018-06-17T00:01:40.638Z,16.13
2018-06-17T00:01:44.737Z,16.12
2018-06-17T00:01:48.947Z,16.12
2018-06-17T00:01:53.275Z,16.13
2018-06-17T00:01:57.584Z,16.13
2018-06-17T00:02:01.786Z,16.13
2018-06-17T00:02:05.783Z,16.13
2018-06-17T00:02:09.770Z,16.13
2018-06-17T00:02:13.862Z,16.12
2018-06-17T00:02:18.065Z,16.13
2018-06-17T00:02:22.053Z,16.12
2018-06-17T00:02:26.361Z,16.13
2018-06-17T00:02:30.567Z,16.12
2018-06-17T00:02:34.782Z,16.13
2018-06-17T00:02:38.989Z,16.13
2018-06-17T00:02:43.302Z,16.13
2018-06-17T00:02:47.510Z,16.14
2018-06-17T00:02:51.716Z,16.13
2018-06-17T00:02:55.933Z,16.13
2018-06-17T00:03:00.144Z,16.13
2018-06-17T00:03:04.239Z,16.13
2018-06-17T00:03:08.333Z,16.13
2018-06-17T00:03:12.224Z,16.14
2018-06-17T00:03:16.541Z,16.13
2018-06-17T00:03:20.742Z,16.13
2018-06-17T00:03:24.841Z,16.13
2018-06-17T00:03:29.046Z,16.13
2018-06-17T00:03:33.250Z,16.14
2018-06-17T00:03:37.617Z,16.13
2018-06-17T00:03:41.824Z,16.13
2018-06-17T00:03:45.918Z,16.14
2018-06-17T00:03:50.132Z,16.14
2018-06-17T00:03:54.339Z,16.14
2018-06-17T00:03:58.537Z,16.14
2018-06-17T00:04:02.635Z,16.14
2018-06-17T00:04:06.840Z,16.14
2018-06-17T00:04:10.953Z,16.14
2018-06-17T00:04:15.201Z,16.14
2018-06-17T00:04:19.191Z,16.15
2018-06-17T00:04:23.500Z,16.14
2018-06-17T00:04:27.710Z,16.14
2018-06-17T00:04:32.021Z,16.13
2018-06-17T00:04:36.236Z,16.14
2018-06-17T00:04:40.227Z,16.13
2018-06-17T00:04:44.441Z,16.13
2018-06-17T00:04:48.643Z,16.14
2018-06-17T00:04:52.962Z,16.14
2018-06-17T00:04:57.322Z,16.14
2018-06-17T00:05:01.633Z,16.14
2018-06-17T00:05:05.729Z,16.14
2018-06-17T00:05:09.824Z,16.14
2018-06-17T00:05:14.028Z,16.14
2018-06-17T00:05:18.337Z,16.14
2018-06-17T00:05:22.541Z,16.14
2018-06-17T00:05:26.430Z,16.14
2018-06-17T00:05:30.634Z,16.14
2018-06-17T00:05:34.839Z,16.14
2018-06-17T00:05:39.044Z,16.14
2018-06-17T00:05:43.037Z,16.15
2018-06-17T00:05:47.352Z,16.14
2018-06-17T00:05:51.554Z,16.15
2018-06-17T00:05:55.761Z,16.15
2018-06-17T00:06:00.072Z,16.15
2018-06-17T00:06:04.064Z,16.15
2018-06-17T00:06:08.272Z,16.15
2018-06-17T00:06:12.475Z,16.16
2018-06-17T00:06:16.783Z,16.15
2018-06-17T00:06:20.986Z,16.16
2018-06-17T00:06:25.184Z,16.15
2018-06-17T00:06:29.489Z,16.16
2018-06-17T00:06:33.799Z,16.16
2018-06-17T00:06:38.001Z,16.16
2018-06-17T00:06:42.208Z,16.16
2018-06-17T00:06:46.205Z,16.16
2018-06-17T00:06:50.408Z,16.16
2018-06-17T00:06:54.509Z,16.17
2018-06-17T00:06:58.710Z,16.17
2018-06-17T00:07:02.916Z,16.16
2018-06-17T00:07:07.016Z,16.17
2018-06-17T00:07:11.330Z,16.17
2018-06-17T00:07:15.532Z,16.17
2018-06-17T00:07:19.848Z,16.17
2018-06-17T00:07:24.157Z,16.17
2018-06-17T00:07:28.358Z,16.16
2018-06-17T00:07:32.566Z,16.17
2018-06-17T00:07:36.880Z,16.18
2018-06-17T00:07:40.761Z,16.18
2018-06-17T00:07:45.094Z,16.18
2018-06-17T00:07:49.298Z,16.18
2018-06-17T00:07:53.393Z,16.18
2018-06-17T00:07:57.598Z,16.18
2018-06-17T00:08:01.696Z,16.18
2018-06-17T00:08:05.899Z,16.18
2018-06-17T00:08:10.210Z,16.18
2018-06-17T00:08:14.540Z,16.18
2018-06-17T00:08:18.862Z,16.18
2018-06-17T00:08:23.138Z,16.19
2018-06-17T00:08:27.449Z,16.19
2018-06-17T00:08:31.649Z,16.19
2018-06-17T00:08:35.854Z,16.19
2018-06-17T00:08:39.950Z,16.19
2018-06-17T00:08:44.043Z,16.19
2018-06-17T00:08:48.400Z,16.19
2018-06-17T00:08:52.711Z,16.2
2018-06-17T00:08:56.917Z,16.2
2018-06-17T00:09:01.117Z,16.19
2018-06-17T00:09:05.371Z,16.2
2018-06-17T00:09:09.588Z,16.19
2018-06-17T00:09:13.791Z,16.2
2018-06-17T00:09:17.988Z,16.19
2018-06-17T00:09:22.190Z,16.19
2018-06-17T00:09:26.281Z,16.2
2018-06-17T00:09:30.274Z,16.19
2018-06-17T00:09:34.587Z,16.19
2018-06-17T00:09:38.681Z,16.2
2018-06-17T00:09:42.883Z,16.2
2018-06-17T00:09:47.088Z,16.19
2018-06-17T00:09:51.414Z,16.2
2018-06-17T00:09:55.618Z,16.2
2018-06-17T00:09:59.865Z,16.2
2018-06-17T00:10:03.914Z,16.19
2018-06-17T00:10:08.008Z,16.2
2018-06-17T00:10:12.215Z,16.2
2018-06-17T00:10:16.535Z,16.19
2018-06-17T00:10:20.634Z,16.2
2018-06-17T00:10:24.835Z,16.2
2018-06-17T00:10:29.038Z,16.2
2018-06-17T00:10:33.133Z,16.19
2018-06-17T00:10:37.332Z,16.2
2018-06-17T00:10:41.541Z,16.2
2018-06-17T00:10:45.849Z,16.2
2018-06-17T00:10:49.944Z,16.2
2018-06-17T00:10:54.147Z,16.19
2018-06-17T00:10:58.254Z,16.2
2018-06-17T00:11:02.396Z,16.2
2018-06-17T00:11:06.605Z,16.2
2018-06-17T00:11:10.830Z,16.2
2018-06-17T00:11:14.924Z,16.2
2018-06-17T00:11:19.229Z,16.2
2018-06-17T00:11:23.459Z,16.2
2018-06-17T00:11:27.661Z,16.2
2018-06-17T00:11:31.971Z,16.2
2018-06-17T00:11:36.274Z,16.21
2018-06-17T00:11:40.598Z,16.2
2018-06-17T00:11:44.690Z,16.21
2018-06-17T00:11:48.794Z,16.2
2018-06-17T00:11:52.999Z,16.2
2018-06-17T00:11:57.315Z,16.2
2018-06-17T00:12:01.627Z,16.2
2018-06-17T00:12:06.097Z,16.2
2018-06-17T00:12:10.307Z,16.21
2018-06-17T00:12:14.518Z,16.2
2018-06-17T00:12:18.511Z,16.21
2018-06-17T00:12:22.716Z,16.2
2018-06-17T00:12:26.918Z,16.21
2018-06-17T00:12:31.115Z,16.21
2018-06-17T00:12:35.323Z,16.21
2018-06-17T00:12:39.635Z,16.21
2018-06-17T00:12:43.734Z,16.21
2018-06-17T00:12:48.046Z,16.2
2018-06-17T00:12:52.245Z,16.21
2018-06-17T00:12:56.446Z,16.21
2018-06-17T00:13:00.753Z,16.22
2018-06-17T00:13:04.849Z,16.22
2018-06-17T00:13:09.057Z,16.22
2018-06-17T00:13:13.262Z,16.22
2018-06-17T00:13:17.464Z,16.22
2018-06-17T00:13:21.775Z,16.22
2018-06-17T00:13:25.981Z,16.21
2018-06-17T00:13:30.302Z,16.22
2018-06-17T00:13:34.511Z,16.22
2018-06-17T00:13:38.817Z,16.22
2018-06-17T00:13:43.018Z,16.23
2018-06-17T00:13:47.218Z,16.23
2018-06-17T00:13:51.419Z,16.23
2018-06-17T00:13:55.779Z,16.23
2018-06-17T00:14:00.086Z,16.23
2018-06-17T00:14:04.301Z,16.23
2018-06-17T00:14:08.512Z,16.24
2018-06-17T00:14:12.721Z,16.23
2018-06-17T00:14:17.032Z,16.24
2018-06-17T00:14:21.174Z,16.23
2018-06-17T00:14:25.487Z,16.24
2018-06-17T00:14:29.579Z,16.24
2018-06-17T00:14:33.785Z,16.24
2018-06-17T00:14:38.094Z,16.25
2018-06-17T00:14:42.195Z,16.26
2018-06-17T00:14:46.510Z,16.25
2018-06-17T00:14:50.835Z,16.25
2018-06-17T00:14:55.040Z,16.25
2018-06-17T00:14:59.243Z,16.25
2018-06-17T00:15:03.128Z,16.25
2018-06-17T00:15:07.333Z,16.26
2018-06-17T00:15:11.539Z,16.25
2018-06-17T00:15:15.636Z,16.25
2018-06-17T00:15:19.942Z,16.26
2018-06-17T00:15:24.035Z,16.26
2018-06-17T00:15:28.026Z,16.26
2018-06-17T00:15:32.119Z,16.27
2018-06-17T00:15:36.323Z,16.26
2018-06-17T00:15:40.525Z,16.26
2018-06-17T00:15:44.833Z,16.26
2018-06-17T00:15:49.055Z,16.27
2018-06-17T00:15:53.165Z,16.27
2018-06-17T00:15:57.512Z,16.27
2018-06-17T00:16:01.824Z,16.28
2018-06-17T00:16:06.075Z,16.28
2018-06-17T00:16:10.275Z,16.29
2018-06-17T00:16:14.590Z,16.28
2018-06-17T00:16:18.793Z,16.29
2018-06-17T00:16:22.883Z,16.29
2018-06-17T00:16:27.086Z,16.29
2018-06-17T00:16:31.180Z,16.29
2018-06-17T00:16:35.394Z,16.28
2018-06-17T00:16:39.705Z,16.3
2018-06-17T00:16:43.910Z,16.3
2018-06-17T00:16:48.111Z,16.29
2018-06-17T00:16:52.313Z,16.3
2018-06-17T00:16:56.622Z,16.31
2018-06-17T00:17:00.827Z,16.3
2018-06-17T00:17:04.711Z,16.3
2018-06-17T00:17:09.021Z,16.3
2018-06-17T00:17:13.129Z,16.31
2018-06-17T00:17:17.223Z,16.3
2018-06-17T00:17:21.423Z,16.31
2018-06-17T00:17:25.627Z,16.31
2018-06-17T00:17:29.937Z,16.31
2018-06-17T00:17:34.037Z,16.32
2018-06-17T00:17:38.353Z,16.31
2018-06-17T00:17:42.665Z,16.31
2018-06-17T00:17:46.868Z,16.32
2018-06-17T00:17:50.974Z,16.32
2018-06-17T00:17:55.173Z,16.32
2018-06-17T00:17:59.375Z,16.32
2018-06-17T00:18:03.478Z,16.32
2018-06-17T00:18:07.694Z,16.32
2018-06-17T00:18:11.899Z,16.32
2018-06-17T00:18:16.215Z,16.33
2018-06-17T00:18:20.416Z,16.32
2018-06-17T00:18:24.725Z,16.33
2018-06-17T00:18:28.928Z,16.33
2018-06-17T00:18:33.137Z,16.33
2018-06-17T00:18:37.240Z,16.32
2018-06-17T00:18:41.331Z,16.33
2018-06-17T00:18:45.431Z,16.33
2018-06-17T00:18:49.420Z,16.34
2018-06-17T00:18:53.729Z,16.33
2018-06-17T00:18:57.874Z,16.35
2018-06-17T00:19:01.970Z,16.34
2018-06-17T00:19:06.114Z,16.34
2018-06-17T00:19:10.422Z,16.33
2018-06-17T00:19:14.622Z,16.33
2018-06-17T00:19:18.505Z,16.34
2018-06-17T00:19:22.714Z,16.33
2018-06-17T00:19:26.930Z,16.34
2018-06-17T00:20:02.918Z,16.34
2018-06-17T00:20:07.015Z,16.34
2018-06-17T00:20:11.328Z,16.34
2018-06-17T00:20:15.539Z,16.34
2018-06-17T00:20:19.638Z,16.34
2018-06-17T00:20:23.852Z,16.35
2018-06-17T00:20:28.061Z,16.34
2018-06-17T00:20:32.364Z,16.35
2018-06-17T00:20:36.575Z,16.34
2018-06-17T00:20:40.779Z,16.34
2018-06-17T00:20:44.986Z,16.34
2018-06-17T00:20:49.110Z,16.34
2018-06-17T00:20:53.424Z,16.34
2018-06-17T00:20:57.747Z,16.34
2018-06-17T00:21:01.839Z,16.34
2018-06-17T00:21:05.836Z,16.34
2018-06-17T00:21:10.044Z,16.34
2018-06-17T00:21:14.249Z,16.34
2018-06-17T00:21:18.455Z,16.34
2018-06-17T00:21:22.668Z,16.34
2018-06-17T00:21:26.872Z,16.34
2018-06-17T00:21:31.081Z,16.34
2018-06-17T00:21:35.283Z,16.35
2018-06-17T00:21:39.275Z,16.34
2018-06-17T00:21:43.369Z,16.33
2018-06-17T00:21:47.464Z,16.34
2018-06-17T00:21:51.782Z,16.34
2018-06-17T00:21:56.098Z,16.33
2018-06-17T00:22:00.409Z,16.34
2018-06-17T00:22:04.406Z,16.34
2018-06-17T00:22:08.402Z,16.34
2018-06-17T00:22:12.512Z,16.34
2018-06-17T00:22:16.827Z,16.34
2018-06-17T00:22:21.138Z,16.34
2018-06-17T00:22:25.350Z,16.34
2018-06-17T00:22:29.667Z,16.33
2018-06-17T00:22:33.981Z,16.34
2018-06-17T00:22:38.297Z,16.33
2018-06-17T00:22:42.395Z,16.33
2018-06-17T00:22:46.597Z,16.33
2018-06-17T00:22:50.919Z,16.33
2018-06-17T00:22:55.129Z,16.34
2018-06-17T00:22:59.443Z,16.33
2018-06-17T00:23:03.652Z,16.33
2018-06-17T00:23:07.804Z,16.34
2018-06-17T00:23:12.011Z,16.34
2018-06-17T00:23:16.222Z,16.34
2018-06-17T00:23:20.428Z,16.34
2018-06-17T00:23:24.736Z,16.34
2018-06-17T00:23:28.938Z,16.33
2018-06-17T00:23:33.042Z,16.33
2018-06-17T00:23:37.358Z,16.33
2018-06-17T00:23:41.555Z,16.33
2018-06-17T00:23:45.649Z,16.33
2018-06-17T00:23:49.850Z,16.33
2018-06-17T00:23:54.165Z,16.33
2018-06-17T00:23:58.260Z,16.33
2018-06-17T00:24:02.516Z,16.33
2018-06-17T00:24:06.728Z,16.33
2018-06-17T00:24:10.928Z,16.32
2018-06-17T00:24:15.135Z,16.33
2018-06-17T00:24:19.448Z,16.33
2018-06-17T00:24:23.756Z,16.33
2018-06-17T00:24:27.869Z,16.33
2018-06-17T00:24:32.073Z,16.33
2018-06-17T00:24:36.388Z,16.32
2018-06-17T00:24:40.589Z,16.33
2018-06-17T00:24:44.574Z,16.33
2018-06-17T00:24:48.890Z,16.33
2018-06-17T00:24:52.882Z,16.32
2018-06-17T00:24:56.761Z,16.33
2018-06-17T00:25:01.077Z,16.33
2018-06-17T00:25:05.073Z,16.33
2018-06-17T00:25:09.283Z,16.33
2018-06-17T00:25:13.386Z,16.33
2018-06-17T00:25:17.707Z,16.33
2018-06-17T00:25:21.908Z,16.34
2018-06-17T00:25:26.120Z,16.34
2018-06-17T00:25:30.108Z,16.33
2018-06-17T00:25:34.207Z,16.33
2018-06-17T00:25:38.407Z,16.33
2018-06-17T00:25:42.500Z,16.33
2018-06-17T00:25:46.702Z,16.33
2018-06-17T00:25:50.801Z,16.34
2018-06-17T00:25:55.119Z,16.33
2018-06-17T00:25:59.325Z,16.33
2018-06-17T00:26:03.636Z,16.33
2018-06-17T00:26:07.734Z,16.34
2018-06-17T00:26:11.935Z,16.33
2018-06-17T00:26:16.145Z,16.34
2018-06-17T00:26:20.358Z,16.32
2018-06-17T00:26:24.666Z,16.33
2018-06-17T00:26:28.763Z,16.33
2018-06-17T00:26:32.973Z,16.33
2018-06-17T00:26:37.171Z,16.34
2018-06-17T00:26:41.376Z,16.33
2018-06-17T00:26:45.578Z,16.33
2018-06-17T00:26:49.781Z,16.33
2018-06-17T00:26:53.978Z,16.33
2018-06-17T00:26:58.216Z,16.33
2018-06-17T00:27:02.419Z,16.33
2018-06-17T00:27:06.626Z,16.33
2018-06-17T00:27:10.838Z,16.32
2018-06-17T00:27:14.935Z,16.32
2018-06-17T00:27:19.147Z,16.33
2018-06-17T00:27:23.467Z,16.32
2018-06-17T00:27:27.568Z,16.32
2018-06-17T00:27:31.884Z,16.32
2018-06-17T00:27:35.990Z,16.31
2018-06-17T00:27:40.198Z,16.31
2018-06-17T00:27:44.423Z,16.31
2018-06-17T00:27:48.736Z,16.32
2018-06-17T00:27:52.956Z,16.32
2018-06-17T00:27:57.050Z,16.32
2018-06-17T00:28:01.252Z,16.31
2018-06-17T00:28:05.353Z,16.32
2018-06-17T00:28:09.450Z,16.31
2018-06-17T00:28:13.758Z,16.32
2018-06-17T00:28:18.067Z,16.32
2018-06-17T00:28:22.378Z,16.32
2018-06-17T00:28:26.474Z,16.31
2018-06-17T00:28:30.578Z,16.32
2018-06-17T00:28:34.834Z,16.31
2018-06-17T00:28:38.926Z,16.31
2018-06-17T00:28:42.913Z,16.31
2018-06-17T00:28:47.223Z,16.31
2018-06-17T00:28:51.430Z,16.31
2018-06-17T00:28:55.638Z,16.31
2018-06-17T00:28:59.839Z,16.3
2018-06-17T00:29:04.051Z,16.31
2018-06-17T00:29:08.046Z,16.31
2018-06-17T00:29:12.242Z,16.31
2018-06-17T00:29:16.437Z,16.3
2018-06-17T00:29:20.641Z,16.31
2018-06-17T00:29:24.953Z,16.3
2018-06-17T00:29:29.057Z,16.3
2018-06-17T00:29:33.263Z,16.31
2018-06-17T00:29:37.366Z,16.31
2018-06-17T00:29:41.564Z,16.3
2018-06-17T00:29:45.657Z,16.31
2018-06-17T00:29:49.977Z,16.3
2018-06-17T00:29:54.070Z,16.3
2018-06-17T00:29:58.166Z,16.31
2018-06-17T00:30:02.258Z,16.3
2018-06-17T00:30:06.143Z,16.3
2018-06-17T00:30:10.351Z,16.3
2018-06-17T00:30:14.547Z,16.29
2018-06-17T00:30:18.749Z,16.3
2018-06-17T00:30:22.951Z,16.29
2018-06-17T00:30:27.167Z,16.29
2018-06-17T00:30:31.372Z,16.3
2018-06-17T00:30:35.467Z,16.28
2018-06-17T00:30:39.683Z,16.29
2018-06-17T00:30:43.893Z,16.29
2018-06-17T00:30:48.096Z,16.29
2018-06-17T00:30:52.307Z,16.29
2018-06-17T00:30:56.515Z,16.28
2018-06-17T00:31:00.832Z,16.28
2018-06-17T00:31:04.717Z,16.28
2018-06-17T00:31:08.921Z,16.28
2018-06-17T00:31:13.230Z,16.28
2018-06-17T00:31:17.431Z,16.29
2018-06-17T00:31:21.421Z,16.28
2018-06-17T00:31:25.634Z,16.27
2018-06-17T00:31:29.841Z,16.27
2018-06-17T00:31:34.045Z,16.26
2018-06-17T00:31:38.356Z,16.26
2018-06-17T00:31:42.556Z,16.26
2018-06-17T00:31:46.756Z,16.26
2018-06-17T00:31:51.067Z,16.26
2018-06-17T00:31:55.375Z,16.26
2018-06-17T00:31:59.682Z,16.26
2018-06-17T00:32:03.788Z,16.26
2018-06-17T00:32:08.090Z,16.25
2018-06-17T00:32:12.409Z,16.25
2018-06-17T00:32:16.504Z,16.24
2018-06-17T00:32:20.712Z,16.25
2018-06-17T00:32:25.023Z,16.24
2018-06-17T00:32:29.123Z,16.25
2018-06-17T00:32:33.325Z,16.24
2018-06-17T00:32:37.527Z,16.23
2018-06-17T00:32:41.758Z,16.23
2018-06-17T00:32:46.069Z,16.24
2018-06-17T00:32:50.275Z,16.23
2018-06-17T00:32:54.480Z,16.23
2018-06-17T00:32:58.785Z,16.23
2018-06-17T00:33:02.888Z,16.23
2018-06-17T00:33:06.992Z,16.23
2018-06-17T00:33:11.302Z,16.22
2018-06-17T00:33:15.396Z,16.22
2018-06-17T00:33:19.600Z,16.22
2018-06-17T00:33:23.829Z,16.21
2018-06-17T00:33:27.923Z,16.22
2018-06-17T00:33:32.236Z,16.21
2018-06-17T00:33:36.609Z,16.21
2018-06-17T00:33:40.806Z,16.21
2018-06-17T00:33:45.011Z,16.21
2018-06-17T00:33:49.220Z,16.2
2018-06-17T00:33:53.527Z,16.2
2018-06-17T00:33:57.626Z,16.19
2018-06-17T00:34:01.826Z,16.2
2018-06-17T00:34:05.928Z,16.19
2018-06-17T00:34:10.022Z,16.19
2018-06-17T00:34:14.222Z,16.19
2018-06-17T00:34:18.428Z,16.19
2018-06-17T00:34:22.731Z,16.18
2018-06-17T00:34:26.615Z,16.18
2018-06-17T00:34:30.816Z,16.18
2018-06-17T00:34:34.804Z,16.18
2018-06-17T00:34:39.006Z,16.17
2018-06-17T00:34:43.206Z,16.18
2018-06-17T00:34:47.527Z,16.17
2018-06-17T00:34:51.736Z,16.16
2018-06-17T00:34:56.051Z,16.17
2018-06-17T00:35:00.417Z,16.17
2018-06-17T00:35:04.519Z,16.17
2018-06-17T00:35:08.617Z,16.16
2018-06-17T00:35:12.710Z,16.15
2018-06-17T00:35:17.029Z,16.15
2018-06-17T00:35:21.228Z,16.15
2018-06-17T00:35:25.215Z,16.15
2018-06-17T00:35:29.524Z,16.14
2018-06-17T00:35:33.739Z,16.15
2018-06-17T00:35:37.943Z,16.14
2018-06-17T00:35:42.307Z,16.14
2018-06-17T00:35:46.613Z,16.14
2018-06-17T00:35:50.813Z,16.13
2018-06-17T00:35:55.118Z,16.14
2018-06-17T00:35:59.315Z,16.13
2018-06-17T00:36:03.521Z,16.12
2018-06-17T00:36:07.552Z,16.12
2018-06-17T00:36:11.758Z,16.12
2018-06-17T00:36:16.073Z,16.12
2018-06-17T00:36:20.273Z,16.11
2018-06-17T00:36:24.262Z,16.11
2018-06-17T00:36:28.472Z,16.1
2018-06-17T00:36:32.685Z,16.1
2018-06-17T00:36:37.001Z,16.1
2018-06-17T00:36:41.200Z,16.09
2018-06-17T00:36:45.404Z,16.1
2018-06-17T00:36:49.607Z,16.1
2018-06-17T00:36:53.921Z,16.09
2018-06-17T00:36:58.126Z,16.1
2018-06-17T00:37:02.344Z,16.09
2018-06-17T00:37:06.223Z,16.08
2018-06-17T00:37:10.539Z,16.08
2018-06-17T00:37:14.739Z,16.07
2018-06-17T00:37:18.947Z,16.07
2018-06-17T00:37:22.935Z,16.07
2018-06-17T00:37:27.245Z,16.07
2018-06-17T00:37:31.557Z,16.07
2018-06-17T00:37:35.863Z,16.06
2018-06-17T00:37:40.178Z,16.06
2018-06-17T00:37:44.394Z,16.06
2018-06-17T00:37:48.486Z,16.05
2018-06-17T00:37:52.692Z,16.06
2018-06-17T00:37:56.997Z,16.04
2018-06-17T00:38:01.192Z,16.04
2018-06-17T00:38:05.186Z,16.04
2018-06-17T00:38:09.396Z,16.04
2018-06-17T00:38:13.713Z,16.03
2018-06-17T00:38:18.028Z,16.02
2018-06-17T00:38:22.236Z,16.03
2018-06-17T00:38:26.441Z,16.02
2018-06-17T00:38:30.652Z,16.02
2018-06-17T00:38:34.751Z,16.01
2018-06-17T00:38:38.743Z,16.02
2018-06-17T00:38:43.056Z,16.01
2018-06-17T00:38:47.256Z,16.01
2018-06-17T00:38:51.468Z,16.01
2018-06-17T00:38:55.455Z,16
2018-06-17T00:38:59.662Z,16
2018-06-17T00:39:03.916Z,15.99
2018-06-17T00:39:08.209Z,15.99
2018-06-17T00:39:12.539Z,15.98
2018-06-17T00:39:16.744Z,15.98
2018-06-17T00:39:20.949Z,15.98
2018-06-17T00:39:25.257Z,15.98
2018-06-17T00:39:29.247Z,15.98
2018-06-17T00:39:33.558Z,15.97
2018-06-17T00:39:37.762Z,15.97
2018-06-17T00:39:42.078Z,15.97
2018-06-17T00:39:46.279Z,15.96
2018-06-17T00:39:50.588Z,15.96
2018-06-17T00:39:54.904Z,15.95
2018-06-17T00:39:59.001Z,15.94
2018-06-17T00:40:03.192Z,15.94
2018-06-17T00:40:07.180Z,15.94
2018-06-17T00:40:11.394Z,15.94
2018-06-17T00:40:15.606Z,15.94
2018-06-17T00:40:19.712Z,15.93
2018-06-17T00:40:23.909Z,15.93
2018-06-17T00:40:28.215Z,15.92
2018-06-17T00:40:32.419Z,15.93
2018-06-17T00:40:36.628Z,15.92
2018-06-17T00:40:40.729Z,15.91
2018-06-17T00:40:44.612Z,15.9
2018-06-17T00:40:48.924Z,15.91
2018-06-17T00:40:53.230Z,15.91
2018-06-17T00:40:57.552Z,15.9
2018-06-17T00:41:01.752Z,15.89
2018-06-17T00:41:05.744Z,15.89
2018-06-17T00:41:09.953Z,15.88
2018-06-17T00:41:14.159Z,15.89
2018-06-17T00:41:18.046Z,15.88
2018-06-17T00:41:22.366Z,15.87
2018-06-17T00:41:26.686Z,15.87
2018-06-17T00:41:31.001Z,15.87
2018-06-17T00:41:35.208Z,15.87
2018-06-17T00:41:39.415Z,15.86
2018-06-17T00:41:43.518Z,15.87
2018-06-17T00:41:47.719Z,15.86
2018-06-17T00:41:52.049Z,15.85
2018-06-17T00:41:56.367Z,15.85
2018-06-17T00:42:00.571Z,15.85
2018-06-17T00:42:04.777Z,15.84
2018-06-17T00:42:08.883Z,15.84
2018-06-17T00:42:13.201Z,15.83
2018-06-17T00:42:17.302Z,15.83
2018-06-17T00:42:21.506Z,15.83
2018-06-17T00:42:25.720Z,15.82
2018-06-17T00:42:29.820Z,15.82
2018-06-17T00:42:34.030Z,15.8
2018-06-17T00:42:38.354Z,15.8
2018-06-17T00:42:42.669Z,15.81
2018-06-17T00:42:47.028Z,15.8
2018-06-17T00:42:51.127Z,15.79
2018-06-17T00:42:55.335Z,15.79
2018-06-17T00:42:59.534Z,15.79
2018-06-17T00:43:03.521Z,15.78
2018-06-17T00:43:07.624Z,15.78
2018-06-17T00:43:11.835Z,15.76
2018-06-17T00:43:16.157Z,15.77
2018-06-17T00:43:20.369Z,15.76
2018-06-17T00:43:24.500Z,15.76
2018-06-17T00:43:28.812Z,15.73
2018-06-17T00:43:33.123Z,15.73
2018-06-17T00:43:37.323Z,15.73
2018-06-17T00:43:41.529Z,15.73
2018-06-17T00:43:45.732Z,15.72
2018-06-17T00:43:49.838Z,15.71
2018-06-17T00:43:54.048Z,15.71
2018-06-17T00:43:58.249Z,15.71
2018-06-17T00:44:02.455Z,15.7
2018-06-17T00:44:06.801Z,15.69
2018-06-17T00:44:10.908Z,15.69
2018-06-17T00:44:15.117Z,15.68
2018-06-17T00:44:19.329Z,15.68
2018-06-17T00:44:23.534Z,15.68
2018-06-17T00:44:27.746Z,15.67
2018-06-17T00:44:31.951Z,15.67
2018-06-17T00:44:36.261Z,15.66
2018-06-17T00:44:40.474Z,15.65
2018-06-17T00:44:44.674Z,15.64
2018-06-17T00:44:48.997Z,15.63
2018-06-17T00:44:53.303Z,15.64
2018-06-17T00:44:57.524Z,15.63
2018-06-17T00:45:01.835Z,15.62
2018-06-17T00:45:05.944Z,15.61
2018-06-17T00:45:10.161Z,15.61
2018-06-17T00:45:14.149Z,15.6
2018-06-17T00:45:18.360Z,15.6
2018-06-17T00:45:22.562Z,15.58
2018-06-17T00:45:26.665Z,15.58
2018-06-17T00:45:30.867Z,15.57
2018-06-17T00:45:35.075Z,15.56
2018-06-17T00:45:39.289Z,15.56
2018-06-17T00:45:43.599Z,15.55
2018-06-17T00:45:47.813Z,15.53
2018-06-17T00:45:52.016Z,15.53
2018-06-17T00:45:56.223Z,15.51
2018-06-17T00:46:00.536Z,15.52
2018-06-17T00:46:04.422Z,15.5
2018-06-17T00:46:08.737Z,15.5
2018-06-17T00:46:12.832Z,15.48
2018-06-17T00:46:16.927Z,15.47
2018-06-17T00:46:21.246Z,15.47
2018-06-17T00:46:25.454Z,15.45
2018-06-17T00:46:29.660Z,15.45
2018-06-17T00:46:33.969Z,15.43
2018-06-17T00:46:37.960Z,15.42
2018-06-17T00:46:42.266Z,15.43
2018-06-17T00:46:46.469Z,15.42
2018-06-17T00:46:50.778Z,15.41
2018-06-17T00:46:54.985Z,15.39
2018-06-17T00:46:59.200Z,15.38
2018-06-17T00:47:03.300Z,15.38
2018-06-17T00:47:07.503Z,15.36
2018-06-17T00:47:11.526Z,15.36
2018-06-17T00:47:15.903Z,15.36
2018-06-17T00:47:20.662Z,15.34
2018-06-17T00:47:25.297Z,15.33
2018-06-17T00:47:29.618Z,15.32
2018-06-17T00:47:33.933Z,15.31
2018-06-17T00:47:38.139Z,15.31
2018-06-17T00:47:42.340Z,15.3
2018-06-17T00:47:46.650Z,15.29
2018-06-17T00:47:51.010Z,15.28
2018-06-17T00:47:55.325Z,15.28
2018-06-17T00:47:59.524Z,15.27
2018-06-17T00:48:03.732Z,15.26
2018-06-17T00:48:07.834Z,15.26
2018-06-17T00:48:12.148Z,15.25
2018-06-17T00:48:16.354Z,15.24
2018-06-17T00:48:20.554Z,15.24
2018-06-17T00:48:24.540Z,15.24
2018-06-17T00:48:28.848Z,15.23
2018-06-17T00:48:33.164Z,15.22
2018-06-17T00:48:37.481Z,15.21
2018-06-17T00:48:41.685Z,15.21
2018-06-17T00:48:45.888Z,15.2
2018-06-17T00:48:50.090Z,15.19
2018-06-17T00:48:54.182Z,15.19
2018-06-17T00:48:58.493Z,15.18
2018-06-17T00:49:02.591Z,15.17
2018-06-17T00:49:06.690Z,15.16
2018-06-17T00:49:10.892Z,15.16
2018-06-17T00:49:15.234Z,15.15
2018-06-17T00:49:19.552Z,15.15
2018-06-17T00:49:23.758Z,15.14
2018-06-17T00:49:28.072Z,15.13
2018-06-17T00:49:32.171Z,15.12
2018-06-17T00:49:36.478Z,15.12
2018-06-17T00:49:40.738Z,15.11
2018-06-17T00:49:44.943Z,15.11
2018-06-17T00:49:49.256Z,15.11
2018-06-17T00:49:53.460Z,15.09
2018-06-17T00:49:57.769Z,15.09
2018-06-17T00:50:02.096Z,15.08
2018-06-17T00:50:06.096Z,15.07
2018-06-17T00:50:10.445Z,15.07
2018-06-17T00:50:14.650Z,15.06
2018-06-17T00:50:18.849Z,15.06
2018-06-17T00:50:23.161Z,15.05
2018-06-17T00:50:27.360Z,15.04
2018-06-17T00:50:31.565Z,15.04
2018-06-17T00:50:35.883Z,15.03
2018-06-17T00:50:40.088Z,15.03
2018-06-17T00:50:44.290Z,15.02
2018-06-17T00:50:48.501Z,15.01
2018-06-17T00:50:52.707Z,15.02
2018-06-17T00:50:57.022Z,15.01
2018-06-17T00:51:01.328Z,15
2018-06-17T00:51:05.314Z,14.99
2018-06-17T00:51:09.410Z,14.99
2018-06-17T00:51:13.720Z,14.99
2018-06-17T00:51:18.038Z,14.99
2018-06-17T00:51:22.246Z,14.97
2018-06-17T00:51:26.344Z,14.98
2018-06-17T00:51:30.328Z,14.98
2018-06-17T00:51:34.317Z,14.97
2018-06-17T00:51:38.520Z,14.96
2018-06-17T00:51:42.507Z,14.96
2018-06-17T00:51:46.713Z,14.96
2018-06-17T00:51:50.913Z,14.95
2018-06-17T00:51:55.230Z,14.95
2018-06-17T00:51:59.439Z,14.96
2018-06-17T00:52:03.429Z,14.94
2018-06-17T00:52:07.629Z,14.94
2018-06-17T00:52:11.831Z,14.94
2018-06-17T00:52:15.820Z,14.93
2018-06-17T00:52:20.135Z,14.93
2018-06-17T00:52:24.445Z,14.92
2018-06-17T00:52:28.490Z,14.92
2018-06-17T00:52:32.806Z,14.93
2018-06-17T00:52:37.006Z,14.91
2018-06-17T00:52:41.104Z,14.92
2018-06-17T00:52:45.305Z,14.91
2018-06-17T00:52:49.507Z,14.91
2018-06-17T00:52:53.820Z,14.9
2018-06-17T00:52:58.134Z,14.9
2018-06-17T00:53:02.344Z,14.9
2018-06-17T00:53:06.435Z,14.89
2018-06-17T00:53:10.543Z,14.9
2018-06-17T00:53:14.745Z,14.89
2018-06-17T00:53:19.057Z,14.88
2018-06-17T00:53:23.260Z,14.88
2018-06-17T00:53:27.465Z,14.88
2018-06-17T00:53:31.781Z,14.88
2018-06-17T00:53:36.041Z,14.87
2018-06-17T00:53:40.349Z,14.87
2018-06-17T00:53:44.677Z,14.86
2018-06-17T00:53:48.878Z,14.86
2018-06-17T00:53:52.985Z,14.86
2018-06-17T00:53:57.297Z,14.86
2018-06-17T00:54:01.399Z,14.86
2018-06-17T00:54:05.611Z,14.86
2018-06-17T00:54:09.812Z,14.85
2018-06-17T00:54:14.015Z,14.84
2018-06-17T00:54:18.325Z,14.84
2018-06-17T00:54:22.652Z,14.85
2018-06-17T00:54:26.646Z,14.85
2018-06-17T00:54:30.851Z,14.84
2018-06-17T00:54:34.950Z,14.84
2018-06-17T00:54:39.154Z,14.84
2018-06-17T00:54:43.461Z,14.83
2018-06-17T00:54:47.764Z,14.84
2018-06-17T00:54:51.965Z,14.83